sensor_id;sensor_type;location;lat;lon;timestamp;P1;durP1;ratioP1;P2;durP2;ratioP2
41446;SDS011;27185;52.040;4.490;2022-09-12T00:02:37;11.75;;;10.50;;
41446;SDS011;27185;52.040;4.490;2022-09-12T00:05:23;12.95;;;10.43;;
41446;SDS011;27185;52.040;4.490;2022-09-12T00:08:09;11.82;;;10.45;;
41446;SDS011;27185;52.040;4.490;2022-09-12T00:10:55;11.18;;;9.95;;
41446;SDS011;27185;52.040;4.490;2022-09-12T00:13:41;13.43;;;11.18;;
41446;SDS011;27185;52.040;4.490;2022-09-12T00:16:29;11.85;;;10.40;;
41446;SDS011;27185;52.040;4.490;2022-09-12T00:19:17;13.63;;;10.35;;
41446;SDS011;27185;52.040;4.490;2022-09-12T00:22:04;10.23;;;9.18;;
41446;SDS011;27185;52.040;4.490;2022-09-12T00:24:50;11.77;;;10.52;;
41446;SDS011;27185;52.040;4.490;2022-09-12T00:27:35;11.63;;;10.20;;
41446;SDS011;27185;52.040;4.490;2022-09-12T00:30:21;11.30;;;9.52;;
41446;SDS011;27185;52.040;4.490;2022-09-12T00:33:07;11.15;;;8.45;;
41446;SDS011;27185;52.040;4.490;2022-09-12T00:35:53;10.20;;;9.18;;
41446;SDS011;27185;52.040;4.490;2022-09-12T00:38:38;10.15;;;8.90;;
41446;SDS011;27185;52.040;4.490;2022-09-12T00:41:32;10.73;;;8.40;;
41446;SDS011;27185;52.040;4.490;2022-09-12T00:47:11;12.18;;;8.23;;
41446;SDS011;27185;52.040;4.490;2022-09-12T00:52:57;10.63;;;9.38;;
41446;SDS011;27185;52.040;4.490;2022-09-12T00:55:48;10.88;;;8.70;;
41446;SDS011;27185;52.040;4.490;2022-09-12T00:58:36;11.20;;;9.30;;
41446;SDS011;27185;52.040;4.490;2022-09-12T01:01:27;9.02;;;7.53;;
41446;SDS011;27185;52.040;4.490;2022-09-12T01:04:13;9.45;;;7.95;;
41446;SDS011;27185;52.040;4.490;2022-09-12T01:06:59;10.25;;;8.07;;
41446;SDS011;27185;52.040;4.490;2022-09-12T01:09:47;8.85;;;7.95;;
41446;SDS011;27185;52.040;4.490;2022-09-12T01:12:33;10.95;;;8.73;;
41446;SDS011;27185;52.040;4.490;2022-09-12T01:15:24;11.40;;;9.40;;
41446;SDS011;27185;52.040;4.490;2022-09-12T01:18:15;10.55;;;9.43;;
41446;SDS011;27185;52.040;4.490;2022-09-12T01:21:19;11.43;;;9.82;;
41446;SDS011;27185;52.040;4.490;2022-09-12T01:37:06;9.55;;;8.52;;
41446;SDS011;27185;52.040;4.490;2022-09-12T01:43:02;10.00;;;8.98;;
41446;SDS011;27185;52.040;4.490;2022-09-12T01:46:14;11.95;;;9.30;;
41446;SDS011;27185;52.040;4.490;2022-09-12T01:49:06;9.88;;;8.75;;
41446;SDS011;27185;52.040;4.490;2022-09-12T01:52:04;11.15;;;9.27;;
41446;SDS011;27185;52.040;4.490;2022-09-12T01:55:06;12.70;;;8.45;;
41446;SDS011;27185;52.040;4.490;2022-09-12T01:58:04;11.25;;;9.55;;
41446;SDS011;27185;52.040;4.490;2022-09-12T02:01:07;12.90;;;10.55;;
41446;SDS011;27185;52.040;4.490;2022-09-12T02:04:08;11.30;;;9.18;;
41446;SDS011;27185;52.040;4.490;2022-09-12T02:07:09;11.82;;;9.73;;
41446;SDS011;27185;52.040;4.490;2022-09-12T02:10:03;11.25;;;10.00;;
41446;SDS011;27185;52.040;4.490;2022-09-12T02:13:00;10.25;;;9.18;;
41446;SDS011;27185;52.040;4.490;2022-09-12T02:15:53;11.40;;;9.70;;
41446;SDS011;27185;52.040;4.490;2022-09-12T02:18:49;13.70;;;10.40;;
41446;SDS011;27185;52.040;4.490;2022-09-12T02:21:38;12.65;;;10.55;;
41446;SDS011;27185;52.040;4.490;2022-09-12T02:24:30;13.27;;;9.85;;
41446;SDS011;27185;52.040;4.490;2022-09-12T02:27:32;11.18;;;9.35;;
41446;SDS011;27185;52.040;4.490;2022-09-12T02:30:22;10.35;;;9.18;;
41446;SDS011;27185;52.040;4.490;2022-09-12T02:33:13;12.77;;;10.45;;
41446;SDS011;27185;52.040;4.490;2022-09-12T02:36:10;15.60;;;10.90;;
41446;SDS011;27185;52.040;4.490;2022-09-12T02:39:07;10.77;;;9.35;;
41446;SDS011;27185;52.040;4.490;2022-09-12T02:41:54;12.73;;;10.70;;
41446;SDS011;27185;52.040;4.490;2022-09-12T02:44:42;12.20;;;10.30;;
41446;SDS011;27185;52.040;4.490;2022-09-12T02:50:26;12.48;;;10.65;;
41446;SDS011;27185;52.040;4.490;2022-09-12T02:53:12;12.88;;;10.70;;
41446;SDS011;27185;52.040;4.490;2022-09-12T02:55:58;17.35;;;11.88;;
41446;SDS011;27185;52.040;4.490;2022-09-12T02:58:44;13.73;;;10.52;;
41446;SDS011;27185;52.040;4.490;2022-09-12T03:01:35;12.15;;;10.25;;
41446;SDS011;27185;52.040;4.490;2022-09-12T03:17:13;14.23;;;10.68;;
41446;SDS011;27185;52.040;4.490;2022-09-12T03:20:12;13.60;;;10.80;;
41446;SDS011;27185;52.040;4.490;2022-09-12T03:23:20;13.40;;;10.40;;
41446;SDS011;27185;52.040;4.490;2022-09-12T03:26:21;14.85;;;11.48;;
41446;SDS011;27185;52.040;4.490;2022-09-12T03:29:16;12.50;;;10.77;;
41446;SDS011;27185;52.040;4.490;2022-09-12T03:32:04;14.88;;;11.70;;
41446;SDS011;27185;52.040;4.490;2022-09-12T03:34:49;15.48;;;11.75;;
41446;SDS011;27185;52.040;4.490;2022-09-12T03:37:35;14.15;;;11.25;;
41446;SDS011;27185;52.040;4.490;2022-09-12T03:40:21;13.23;;;10.55;;
41446;SDS011;27185;52.040;4.490;2022-09-12T03:43:07;14.20;;;10.77;;
41446;SDS011;27185;52.040;4.490;2022-09-12T03:45:54;14.55;;;11.30;;
41446;SDS011;27185;52.040;4.490;2022-09-12T03:48:40;13.68;;;11.25;;
41446;SDS011;27185;52.040;4.490;2022-09-12T03:51:26;14.63;;;11.38;;
41446;SDS011;27185;52.040;4.490;2022-09-12T03:54:12;15.82;;;11.05;;
41446;SDS011;27185;52.040;4.490;2022-09-12T03:56:57;13.23;;;11.07;;
41446;SDS011;27185;52.040;4.490;2022-09-12T03:59:43;13.45;;;10.45;;
41446;SDS011;27185;52.040;4.490;2022-09-12T04:02:28;13.85;;;10.18;;
41446;SDS011;27185;52.040;4.490;2022-09-12T04:05:14;16.02;;;11.45;;
41446;SDS011;27185;52.040;4.490;2022-09-12T04:08:00;12.30;;;10.15;;
41446;SDS011;27185;52.040;4.490;2022-09-12T04:10:46;12.80;;;10.85;;
41446;SDS011;27185;52.040;4.490;2022-09-12T04:13:31;14.35;;;12.00;;
41446;SDS011;27185;52.040;4.490;2022-09-12T04:16:19;11.60;;;10.10;;
41446;SDS011;27185;52.040;4.490;2022-09-12T04:19:04;14.90;;;11.45;;
41446;SDS011;27185;52.040;4.490;2022-09-12T04:21:50;13.80;;;11.60;;
41446;SDS011;27185;52.040;4.490;2022-09-12T04:24:35;14.75;;;11.07;;
41446;SDS011;27185;52.040;4.490;2022-09-12T04:27:21;17.02;;;11.52;;
41446;SDS011;27185;52.040;4.490;2022-09-12T04:30:07;13.25;;;11.07;;
41446;SDS011;27185;52.040;4.490;2022-09-12T04:32:53;14.05;;;11.50;;
41446;SDS011;27185;52.040;4.490;2022-09-12T04:35:38;14.02;;;11.82;;
41446;SDS011;27185;52.040;4.490;2022-09-12T04:38:25;15.48;;;11.52;;
41446;SDS011;27185;52.040;4.490;2022-09-12T04:41:12;15.77;;;12.48;;
41446;SDS011;27185;52.040;4.490;2022-09-12T04:44:04;15.90;;;11.50;;
41446;SDS011;27185;52.040;4.490;2022-09-12T04:46:55;16.33;;;12.40;;
41446;SDS011;27185;52.040;4.490;2022-09-12T04:49:41;15.20;;;11.80;;
41446;SDS011;27185;52.040;4.490;2022-09-12T04:52:27;15.90;;;12.05;;
41446;SDS011;27185;52.040;4.490;2022-09-12T04:55:12;18.27;;;13.38;;
41446;SDS011;27185;52.040;4.490;2022-09-12T04:57:58;21.92;;;15.30;;
41446;SDS011;27185;52.040;4.490;2022-09-12T05:00:45;18.60;;;12.90;;
41446;SDS011;27185;52.040;4.490;2022-09-12T05:03:31;16.73;;;12.48;;
41446;SDS011;27185;52.040;4.490;2022-09-12T05:06:18;20.45;;;13.02;;
41446;SDS011;27185;52.040;4.490;2022-09-12T05:09:12;17.17;;;13.27;;
41446;SDS011;27185;52.040;4.490;2022-09-12T05:11:58;17.85;;;12.95;;
41446;SDS011;27185;52.040;4.490;2022-09-12T05:14:43;19.42;;;13.30;;
41446;SDS011;27185;52.040;4.490;2022-09-12T05:17:29;18.55;;;14.50;;
41446;SDS011;27185;52.040;4.490;2022-09-12T05:20:15;20.00;;;14.50;;
41446;SDS011;27185;52.040;4.490;2022-09-12T05:23:01;17.92;;;13.23;;
41446;SDS011;27185;52.040;4.490;2022-09-12T05:25:47;19.15;;;13.90;;
41446;SDS011;27185;52.040;4.490;2022-09-12T05:28:35;18.70;;;13.65;;
41446;SDS011;27185;52.040;4.490;2022-09-12T05:31:23;20.58;;;14.25;;
41446;SDS011;27185;52.040;4.490;2022-09-12T05:34:10;20.63;;;14.82;;
41446;SDS011;27185;52.040;4.490;2022-09-12T05:36:56;20.60;;;14.60;;
41446;SDS011;27185;52.040;4.490;2022-09-12T05:39:42;21.23;;;16.08;;
41446;SDS011;27185;52.040;4.490;2022-09-12T05:42:28;17.65;;;14.27;;
41446;SDS011;27185;52.040;4.490;2022-09-12T05:45:14;20.10;;;14.50;;
41446;SDS011;27185;52.040;4.490;2022-09-12T05:48:00;23.30;;;15.15;;
41446;SDS011;27185;52.040;4.490;2022-09-12T05:50:46;20.50;;;15.27;;
41446;SDS011;27185;52.040;4.490;2022-09-12T05:53:32;20.05;;;14.93;;
41446;SDS011;27185;52.040;4.490;2022-09-12T05:56:18;22.23;;;15.77;;
41446;SDS011;27185;52.040;4.490;2022-09-12T05:59:10;21.42;;;15.43;;
41446;SDS011;27185;52.040;4.490;2022-09-12T06:01:57;23.65;;;16.33;;
41446;SDS011;27185;52.040;4.490;2022-09-12T06:04:43;20.63;;;16.02;;
41446;SDS011;27185;52.040;4.490;2022-09-12T06:07:29;27.02;;;16.67;;
41446;SDS011;27185;52.040;4.490;2022-09-12T06:10:16;23.95;;;17.20;;
41446;SDS011;27185;52.040;4.490;2022-09-12T06:13:02;30.30;;;16.42;;
41446;SDS011;27185;52.040;4.490;2022-09-12T06:15:48;23.73;;;16.85;;
41446;SDS011;27185;52.040;4.490;2022-09-12T06:18:34;21.88;;;16.40;;
41446;SDS011;27185;52.040;4.490;2022-09-12T06:21:20;22.17;;;16.98;;
41446;SDS011;27185;52.040;4.490;2022-09-12T06:24:07;25.00;;;16.70;;
41446;SDS011;27185;52.040;4.490;2022-09-12T06:26:53;23.10;;;16.85;;
41446;SDS011;27185;52.040;4.490;2022-09-12T06:29:40;21.50;;;16.10;;
41446;SDS011;27185;52.040;4.490;2022-09-12T06:32:28;22.08;;;16.63;;
41446;SDS011;27185;52.040;4.490;2022-09-12T06:35:14;25.23;;;17.98;;
41446;SDS011;27185;52.040;4.490;2022-09-12T06:38:00;24.25;;;17.85;;
41446;SDS011;27185;52.040;4.490;2022-09-12T06:40:45;25.15;;;18.42;;
41446;SDS011;27185;52.040;4.490;2022-09-12T06:43:31;24.23;;;18.38;;
41446;SDS011;27185;52.040;4.490;2022-09-12T06:46:17;23.35;;;17.23;;
41446;SDS011;27185;52.040;4.490;2022-09-12T06:49:03;24.60;;;17.67;;
41446;SDS011;27185;52.040;4.490;2022-09-12T06:51:49;28.27;;;18.10;;
41446;SDS011;27185;52.040;4.490;2022-09-12T06:54:34;24.50;;;18.38;;
41446;SDS011;27185;52.040;4.490;2022-09-12T06:57:20;32.33;;;20.02;;
41446;SDS011;27185;52.040;4.490;2022-09-12T07:00:06;28.33;;;19.17;;
41446;SDS011;27185;52.040;4.490;2022-09-12T07:02:52;25.48;;;19.70;;
41446;SDS011;27185;52.040;4.490;2022-09-12T07:05:40;27.00;;;19.98;;
41446;SDS011;27185;52.040;4.490;2022-09-12T07:08:26;29.55;;;21.60;;
41446;SDS011;27185;52.040;4.490;2022-09-12T07:11:23;29.60;;;20.63;;
41446;SDS011;27185;52.040;4.490;2022-09-12T07:14:11;23.30;;;18.55;;
41446;SDS011;27185;52.040;4.490;2022-09-12T07:16:58;26.40;;;19.63;;
41446;SDS011;27185;52.040;4.490;2022-09-12T07:19:43;28.23;;;19.88;;
41446;SDS011;27185;52.040;4.490;2022-09-12T07:22:29;28.92;;;19.40;;
41446;SDS011;27185;52.040;4.490;2022-09-12T07:25:14;27.70;;;20.77;;
41446;SDS011;27185;52.040;4.490;2022-09-12T07:28:00;24.52;;;18.50;;
41446;SDS011;27185;52.040;4.490;2022-09-12T07:30:46;29.63;;;21.60;;
41446;SDS011;27185;52.040;4.490;2022-09-12T07:33:32;30.48;;;21.42;;
41446;SDS011;27185;52.040;4.490;2022-09-12T07:36:19;28.52;;;20.40;;
41446;SDS011;27185;52.040;4.490;2022-09-12T07:39:07;27.27;;;19.65;;
41446;SDS011;27185;52.040;4.490;2022-09-12T07:41:53;27.55;;;21.77;;
41446;SDS011;27185;52.040;4.490;2022-09-12T07:44:39;25.25;;;19.55;;
41446;SDS011;27185;52.040;4.490;2022-09-12T07:47:24;23.45;;;17.88;;
41446;SDS011;27185;52.040;4.490;2022-09-12T07:50:10;22.40;;;16.98;;
41446;SDS011;27185;52.040;4.490;2022-09-12T07:52:55;27.25;;;17.15;;
41446;SDS011;27185;52.040;4.490;2022-09-12T07:55:41;25.60;;;16.98;;
41446;SDS011;27185;52.040;4.490;2022-09-12T07:58:27;20.98;;;15.68;;
41446;SDS011;27185;52.040;4.490;2022-09-12T08:01:15;21.38;;;16.20;;
41446;SDS011;27185;52.040;4.490;2022-09-12T08:04:03;22.70;;;16.45;;
41446;SDS011;27185;52.040;4.490;2022-09-12T08:06:49;20.92;;;16.08;;
41446;SDS011;27185;52.040;4.490;2022-09-12T08:09:35;22.95;;;16.58;;
41446;SDS011;27185;52.040;4.490;2022-09-12T08:12:21;26.23;;;17.38;;
41446;SDS011;27185;52.040;4.490;2022-09-12T08:15:06;25.48;;;16.60;;
41446;SDS011;27185;52.040;4.490;2022-09-12T08:17:52;21.75;;;15.25;;
41446;SDS011;27185;52.040;4.490;2022-09-12T08:20:38;20.90;;;13.30;;
41446;SDS011;27185;52.040;4.490;2022-09-12T08:23:23;17.58;;;12.73;;
41446;SDS011;27185;52.040;4.490;2022-09-12T08:26:12;15.88;;;11.40;;
41446;SDS011;27185;52.040;4.490;2022-09-12T08:28:58;14.50;;;11.43;;
41446;SDS011;27185;52.040;4.490;2022-09-12T08:31:44;11.48;;;9.85;;
41446;SDS011;27185;52.040;4.490;2022-09-12T08:34:30;12.80;;;10.75;;
41446;SDS011;27185;52.040;4.490;2022-09-12T08:37:16;12.88;;;10.95;;
41446;SDS011;27185;52.040;4.490;2022-09-12T08:40:02;12.25;;;9.15;;
41446;SDS011;27185;52.040;4.490;2022-09-12T08:43:00;10.48;;;8.25;;
41446;SDS011;27185;52.040;4.490;2022-09-12T08:45:53;13.95;;;10.70;;
41446;SDS011;27185;52.040;4.490;2022-09-12T08:48:48;10.82;;;8.75;;
41446;SDS011;27185;52.040;4.490;2022-09-12T08:51:35;11.80;;;8.18;;
41446;SDS011;27185;52.040;4.490;2022-09-12T08:54:27;11.20;;;8.73;;
41446;SDS011;27185;52.040;4.490;2022-09-12T08:57:14;10.32;;;8.48;;
41446;SDS011;27185;52.040;4.490;2022-09-12T09:00:00;10.82;;;7.65;;
41446;SDS011;27185;52.040;4.490;2022-09-12T09:02:58;13.80;;;9.02;;
41446;SDS011;27185;52.040;4.490;2022-09-12T09:06:00;8.25;;;7.43;;
41446;SDS011;27185;52.040;4.490;2022-09-12T09:21:19;9.52;;;5.88;;
41446;SDS011;27185;52.040;4.490;2022-09-12T09:24:11;7.72;;;5.68;;
41446;SDS011;27185;52.040;4.490;2022-09-12T09:27:05;6.93;;;4.65;;
41446;SDS011;27185;52.040;4.490;2022-09-12T09:29:57;5.00;;;3.75;;
41446;SDS011;27185;52.040;4.490;2022-09-12T09:32:44;6.28;;;4.53;;
41446;SDS011;27185;52.040;4.490;2022-09-12T09:35:38;5.00;;;4.25;;
41446;SDS011;27185;52.040;4.490;2022-09-12T09:41:58;5.20;;;4.13;;
41446;SDS011;27185;52.040;4.490;2022-09-12T09:45:10;6.37;;;4.63;;
41446;SDS011;27185;52.040;4.490;2022-09-12T09:48:02;4.53;;;2.95;;
41446;SDS011;27185;52.040;4.490;2022-09-12T09:50:56;6.15;;;4.10;;
41446;SDS011;27185;52.040;4.490;2022-09-12T09:53:46;6.18;;;4.40;;
41446;SDS011;27185;52.040;4.490;2022-09-12T09:56:36;6.55;;;3.80;;
41446;SDS011;27185;52.040;4.490;2022-09-12T09:59:28;5.65;;;3.70;;
41446;SDS011;27185;52.040;4.490;2022-09-12T10:02:19;5.68;;;3.38;;
41446;SDS011;27185;52.040;4.490;2022-09-12T10:05:07;5.57;;;3.38;;
41446;SDS011;27185;52.040;4.490;2022-09-12T10:08:01;4.68;;;3.20;;
41446;SDS011;27185;52.040;4.490;2022-09-12T10:13:53;5.47;;;3.35;;
41446;SDS011;27185;52.040;4.490;2022-09-12T10:16:48;4.78;;;3.70;;
41446;SDS011;27185;52.040;4.490;2022-09-12T10:19:38;5.40;;;2.67;;
41446;SDS011;27185;52.040;4.490;2022-09-12T10:22:26;4.57;;;2.50;;
41446;SDS011;27185;52.040;4.490;2022-09-12T10:25:14;4.43;;;2.63;;
41446;SDS011;27185;52.040;4.490;2022-09-12T10:28:02;4.65;;;2.42;;
41446;SDS011;27185;52.040;4.490;2022-09-12T10:30:52;4.95;;;2.42;;
41446;SDS011;27185;52.040;4.490;2022-09-12T10:33:43;5.70;;;2.67;;
41446;SDS011;27185;52.040;4.490;2022-09-12T10:36:35;3.17;;;2.47;;
41446;SDS011;27185;52.040;4.490;2022-09-12T10:39:22;4.65;;;2.72;;
41446;SDS011;27185;52.040;4.490;2022-09-12T10:42:10;4.47;;;2.47;;
41446;SDS011;27185;52.040;4.490;2022-09-12T10:44:59;5.05;;;2.28;;
41446;SDS011;27185;52.040;4.490;2022-09-12T10:47:44;5.22;;;3.22;;
41446;SDS011;27185;52.040;4.490;2022-09-12T10:50:40;4.68;;;2.92;;
41446;SDS011;27185;52.040;4.490;2022-09-12T10:53:39;5.07;;;2.60;;
41446;SDS011;27185;52.040;4.490;2022-09-12T10:56:28;4.03;;;2.15;;
41446;SDS011;27185;52.040;4.490;2022-09-12T10:59:36;6.32;;;3.08;;
41446;SDS011;27185;52.040;4.490;2022-09-12T11:06:08;5.28;;;2.25;;
41446;SDS011;27185;52.040;4.490;2022-09-12T11:30:17;1.93;;;0.90;;
41446;SDS011;27185;52.040;4.490;2022-09-12T11:33:23;2.20;;;1.30;;
41446;SDS011;27185;52.040;4.490;2022-09-12T11:39:46;4.60;;;1.40;;
41446;SDS011;27185;52.040;4.490;2022-09-12T11:42:37;4.03;;;1.20;;
41446;SDS011;27185;52.040;4.490;2022-09-12T11:45:29;3.42;;;1.30;;
41446;SDS011;27185;52.040;4.490;2022-09-12T11:51:18;1.70;;;0.85;;
41446;SDS011;27185;52.040;4.490;2022-09-12T11:54:20;2.28;;;0.93;;
41446;SDS011;27185;52.040;4.490;2022-09-12T11:57:18;3.45;;;1.30;;
41446;SDS011;27185;52.040;4.490;2022-09-12T12:06:04;3.05;;;1.13;;
41446;SDS011;27185;52.040;4.490;2022-09-12T12:08:56;1.98;;;0.95;;
41446;SDS011;27185;52.040;4.490;2022-09-12T12:11:43;2.78;;;1.20;;
41446;SDS011;27185;52.040;4.490;2022-09-12T12:14:37;1.80;;;0.90;;
41446;SDS011;27185;52.040;4.490;2022-09-12T12:17:27;1.83;;;0.90;;
41446;SDS011;27185;52.040;4.490;2022-09-12T12:20:14;2.13;;;1.00;;
41446;SDS011;27185;52.040;4.490;2022-09-12T12:23:04;3.97;;;1.23;;
41446;SDS011;27185;52.040;4.490;2022-09-12T12:25:57;2.45;;;1.00;;
41446;SDS011;27185;52.040;4.490;2022-09-12T12:34:48;3.70;;;1.20;;
41446;SDS011;27185;52.040;4.490;2022-09-12T12:40:25;3.72;;;1.00;;
41446;SDS011;27185;52.040;4.490;2022-09-12T12:43:29;3.45;;;1.38;;
41446;SDS011;27185;52.040;4.490;2022-09-12T12:46:19;2.30;;;1.15;;
41446;SDS011;27185;52.040;4.490;2022-09-12T12:49:16;4.03;;;0.98;;
41446;SDS011;27185;52.040;4.490;2022-09-12T12:52:15;2.15;;;0.82;;
41446;SDS011;27185;52.040;4.490;2022-09-12T12:55:02;2.67;;;1.20;;
41446;SDS011;27185;52.040;4.490;2022-09-12T12:57:49;3.17;;;1.30;;
41446;SDS011;27185;52.040;4.490;2022-09-12T13:00:37;2.10;;;1.05;;
41446;SDS011;27185;52.040;4.490;2022-09-12T13:03:27;3.00;;;1.20;;
41446;SDS011;27185;52.040;4.490;2022-09-12T13:06:22;3.00;;;1.45;;
41446;SDS011;27185;52.040;4.490;2022-09-12T13:12:32;2.15;;;1.15;;
41446;SDS011;27185;52.040;4.490;2022-09-12T13:18:18;1.77;;;0.88;;
41446;SDS011;27185;52.040;4.490;2022-09-12T13:21:16;2.78;;;1.00;;
41446;SDS011;27185;52.040;4.490;2022-09-12T13:24:04;2.70;;;1.15;;
41446;SDS011;27185;52.040;4.490;2022-09-12T13:26:59;2.80;;;1.70;;
41446;SDS011;27185;52.040;4.490;2022-09-12T13:29:45;2.85;;;1.33;;
41446;SDS011;27185;52.040;4.490;2022-09-12T13:32:30;4.05;;;1.17;;
41446;SDS011;27185;52.040;4.490;2022-09-12T13:35:38;2.40;;;1.20;;
41446;SDS011;27185;52.040;4.490;2022-09-12T13:45:12;3.20;;;1.33;;
41446;SDS011;27185;52.040;4.490;2022-09-12T13:48:03;3.83;;;1.17;;
41446;SDS011;27185;52.040;4.490;2022-09-12T13:50:55;1.73;;;0.98;;
41446;SDS011;27185;52.040;4.490;2022-09-12T13:53:45;3.40;;;0.98;;
41446;SDS011;27185;52.040;4.490;2022-09-12T13:56:33;3.03;;;1.05;;
41446;SDS011;27185;52.040;4.490;2022-09-12T13:59:37;3.20;;;1.30;;
41446;SDS011;27185;52.040;4.490;2022-09-12T14:02:25;3.22;;;1.60;;
41446;SDS011;27185;52.040;4.490;2022-09-12T14:05:16;1.85;;;0.88;;
41446;SDS011;27185;52.040;4.490;2022-09-12T14:08:05;4.40;;;1.08;;
41446;SDS011;27185;52.040;4.490;2022-09-12T14:10:53;3.90;;;2.08;;
41446;SDS011;27185;52.040;4.490;2022-09-12T14:13:40;3.97;;;1.50;;
41446;SDS011;27185;52.040;4.490;2022-09-12T14:16:25;4.45;;;1.55;;
41446;SDS011;27185;52.040;4.490;2022-09-12T14:19:12;3.30;;;1.50;;
41446;SDS011;27185;52.040;4.490;2022-09-12T14:22:00;4.00;;;1.70;;
41446;SDS011;27185;52.040;4.490;2022-09-12T14:24:46;3.22;;;1.48;;
41446;SDS011;27185;52.040;4.490;2022-09-12T14:27:38;3.03;;;1.38;;
41446;SDS011;27185;52.040;4.490;2022-09-12T14:30:35;2.30;;;1.08;;
41446;SDS011;27185;52.040;4.490;2022-09-12T14:33:21;2.40;;;1.20;;
41446;SDS011;27185;52.040;4.490;2022-09-12T14:38:56;4.68;;;1.75;;
41446;SDS011;27185;52.040;4.490;2022-09-12T14:41:47;3.22;;;1.83;;
41446;SDS011;27185;52.040;4.490;2022-09-12T14:44:34;4.75;;;1.70;;
41446;SDS011;27185;52.040;4.490;2022-09-12T14:47:22;4.35;;;1.52;;
41446;SDS011;27185;52.040;4.490;2022-09-12T14:50:16;4.68;;;1.30;;
41446;SDS011;27185;52.040;4.490;2022-09-12T14:56:09;5.18;;;1.60;;
41446;SDS011;27185;52.040;4.490;2022-09-12T14:59:18;3.05;;;1.77;;
41446;SDS011;27185;52.040;4.490;2022-09-12T15:08:00;2.75;;;1.67;;
41446;SDS011;27185;52.040;4.490;2022-09-12T15:10:46;2.80;;;1.25;;
41446;SDS011;27185;52.040;4.490;2022-09-12T15:13:37;2.78;;;1.15;;
41446;SDS011;27185;52.040;4.490;2022-09-12T15:16:24;2.78;;;1.30;;
41446;SDS011;27185;52.040;4.490;2022-09-12T15:19:09;4.13;;;1.42;;
41446;SDS011;27185;52.040;4.490;2022-09-12T15:21:55;3.92;;;1.42;;
41446;SDS011;27185;52.040;4.490;2022-09-12T15:24:41;3.28;;;1.63;;
41446;SDS011;27185;52.040;4.490;2022-09-12T15:27:27;3.05;;;1.63;;
41446;SDS011;27185;52.040;4.490;2022-09-12T15:30:13;3.67;;;1.60;;
41446;SDS011;27185;52.040;4.490;2022-09-12T15:32:58;2.83;;;1.65;;
41446;SDS011;27185;52.040;4.490;2022-09-12T15:35:44;2.38;;;1.38;;
41446;SDS011;27185;52.040;4.490;2022-09-12T15:38:30;2.65;;;1.77;;
41446;SDS011;27185;52.040;4.490;2022-09-12T15:41:17;2.28;;;1.33;;
41446;SDS011;27185;52.040;4.490;2022-09-12T15:44:05;3.22;;;1.67;;
41446;SDS011;27185;52.040;4.490;2022-09-12T15:46:52;5.85;;;1.25;;
41446;SDS011;27185;52.040;4.490;2022-09-12T15:49:39;4.65;;;1.45;;
41446;SDS011;27185;52.040;4.490;2022-09-12T15:52:25;3.63;;;1.20;;
41446;SDS011;27185;52.040;4.490;2022-09-12T15:55:14;4.10;;;1.33;;
41446;SDS011;27185;52.040;4.490;2022-09-12T15:58:03;3.75;;;1.80;;
41446;SDS011;27185;52.040;4.490;2022-09-12T16:00:48;6.22;;;1.98;;
41446;SDS011;27185;52.040;4.490;2022-09-12T16:03:34;2.60;;;1.45;;
41446;SDS011;27185;52.040;4.490;2022-09-12T16:06:19;3.30;;;1.73;;
41446;SDS011;27185;52.040;4.490;2022-09-12T16:09:06;3.58;;;1.50;;
41446;SDS011;27185;52.040;4.490;2022-09-12T16:11:51;5.90;;;1.58;;
41446;SDS011;27185;52.040;4.490;2022-09-12T16:14:37;3.78;;;2.35;;
41446;SDS011;27185;52.040;4.490;2022-09-12T16:17:22;3.78;;;1.77;;
41446;SDS011;27185;52.040;4.490;2022-09-12T16:20:08;6.03;;;2.05;;
41446;SDS011;27185;52.040;4.490;2022-09-12T16:25:41;3.22;;;1.83;;
41446;SDS011;27185;52.040;4.490;2022-09-12T16:28:27;3.95;;;1.95;;
41446;SDS011;27185;52.040;4.490;2022-09-12T16:31:13;4.88;;;2.22;;
41446;SDS011;27185;52.040;4.490;2022-09-12T16:33:59;3.35;;;1.60;;
41446;SDS011;27185;52.040;4.490;2022-09-12T16:36:44;5.25;;;1.80;;
41446;SDS011;27185;52.040;4.490;2022-09-12T16:39:31;3.83;;;1.75;;
41446;SDS011;27185;52.040;4.490;2022-09-12T16:42:18;4.20;;;1.88;;
41446;SDS011;27185;52.040;4.490;2022-09-12T16:45:04;3.42;;;2.03;;
41446;SDS011;27185;52.040;4.490;2022-09-12T16:47:50;3.40;;;1.60;;
41446;SDS011;27185;52.040;4.490;2022-09-12T16:50:36;4.90;;;1.75;;
41446;SDS011;27185;52.040;4.490;2022-09-12T16:53:21;3.97;;;2.30;;
41446;SDS011;27185;52.040;4.490;2022-09-12T16:56:07;6.22;;;2.30;;
41446;SDS011;27185;52.040;4.490;2022-09-12T16:58:53;4.05;;;2.38;;
41446;SDS011;27185;52.040;4.490;2022-09-12T17:01:49;4.47;;;2.13;;
41446;SDS011;27185;52.040;4.490;2022-09-12T17:04:34;4.40;;;2.58;;
41446;SDS011;27185;52.040;4.490;2022-09-12T17:07:20;9.45;;;1.92;;
41446;SDS011;27185;52.040;4.490;2022-09-12T17:10:06;5.65;;;2.22;;
41446;SDS011;27185;52.040;4.490;2022-09-12T17:12:52;3.15;;;1.83;;
41446;SDS011;27185;52.040;4.490;2022-09-12T17:15:38;4.28;;;1.85;;
41446;SDS011;27185;52.040;4.490;2022-09-12T17:18:24;7.70;;;1.70;;
41446;SDS011;27185;52.040;4.490;2022-09-12T17:21:10;5.13;;;2.05;;
41446;SDS011;27185;52.040;4.490;2022-09-12T17:23:56;3.37;;;1.80;;
41446;SDS011;27185;52.040;4.490;2022-09-12T17:26:43;5.25;;;2.05;;
41446;SDS011;27185;52.040;4.490;2022-09-12T17:29:29;2.90;;;1.80;;
41446;SDS011;27185;52.040;4.490;2022-09-12T17:32:15;4.63;;;1.52;;
41446;SDS011;27185;52.040;4.490;2022-09-12T17:35:00;4.53;;;2.08;;
41446;SDS011;27185;52.040;4.490;2022-09-12T17:37:46;2.80;;;1.70;;
41446;SDS011;27185;52.040;4.490;2022-09-12T17:40:35;4.93;;;2.25;;
41446;SDS011;27185;52.040;4.490;2022-09-12T17:43:21;4.00;;;1.20;;
41446;SDS011;27185;52.040;4.490;2022-09-12T17:46:07;3.20;;;1.42;;
41446;SDS011;27185;52.040;4.490;2022-09-12T17:48:53;2.72;;;1.40;;
41446;SDS011;27185;52.040;4.490;2022-09-12T17:51:40;3.92;;;1.60;;
41446;SDS011;27185;52.040;4.490;2022-09-12T17:54:27;4.55;;;1.85;;
41446;SDS011;27185;52.040;4.490;2022-09-12T17:57:13;5.65;;;1.80;;
41446;SDS011;27185;52.040;4.490;2022-09-12T17:59:58;2.88;;;1.55;;
41446;SDS011;27185;52.040;4.490;2022-09-12T18:02:44;5.20;;;2.42;;
41446;SDS011;27185;52.040;4.490;2022-09-12T18:05:30;5.07;;;2.22;;
41446;SDS011;27185;52.040;4.490;2022-09-12T18:08:16;3.70;;;2.38;;
41446;SDS011;27185;52.040;4.490;2022-09-12T18:11:02;4.85;;;2.75;;
41446;SDS011;27185;52.040;4.490;2022-09-12T18:13:49;5.00;;;2.40;;
41446;SDS011;27185;52.040;4.490;2022-09-12T18:16:34;5.00;;;2.20;;
41446;SDS011;27185;52.040;4.490;2022-09-12T18:19:20;4.97;;;2.13;;
41446;SDS011;27185;52.040;4.490;2022-09-12T18:22:07;4.40;;;2.92;;
41446;SDS011;27185;52.040;4.490;2022-09-12T18:24:53;4.70;;;2.08;;
41446;SDS011;27185;52.040;4.490;2022-09-12T18:27:39;6.00;;;2.92;;
41446;SDS011;27185;52.040;4.490;2022-09-12T18:30:24;4.90;;;2.67;;
41446;SDS011;27185;52.040;4.490;2022-09-12T18:33:10;4.18;;;2.33;;
41446;SDS011;27185;52.040;4.490;2022-09-12T18:35:55;3.88;;;2.30;;
41446;SDS011;27185;52.040;4.490;2022-09-12T18:38:47;3.97;;;1.80;;
41446;SDS011;27185;52.040;4.490;2022-09-12T18:41:33;3.60;;;2.00;;
41446;SDS011;27185;52.040;4.490;2022-09-12T18:44:19;4.80;;;1.88;;
41446;SDS011;27185;52.040;4.490;2022-09-12T18:47:04;4.97;;;1.77;;
41446;SDS011;27185;52.040;4.490;2022-09-12T18:49:50;5.05;;;2.30;;
41446;SDS011;27185;52.040;4.490;2022-09-12T18:52:36;3.33;;;2.20;;
41446;SDS011;27185;52.040;4.490;2022-09-12T18:55:21;4.05;;;2.30;;